sensor_id;sensor_type;location;lat;lon;timestamp;P1;durP1;ratioP1;P2;durP2;ratioP2
44228;SDS011;29904;51.058;5.378;2022-12-29T00:01:35;1.50;;;0.80;;
44228;SDS011;29904;51.058;5.378;2022-12-29T00:04:01;1.88;;;0.70;;
44228;SDS011;29904;51.058;5.378;2022-12-29T00:06:29;1.30;;;0.60;;
44228;SDS011;29904;51.058;5.378;2022-12-29T00:08:55;0.95;;;0.60;;
44228;SDS011;29904;51.058;5.378;2022-12-29T00:11:23;1.00;;;0.53;;
44228;SDS011;29904;51.058;5.378;2022-12-29T00:13:50;1.03;;;0.53;;
44228;SDS011;29904;51.058;5.378;2022-12-29T00:16:35;1.17;;;0.60;;
44228;SDS011;29904;51.058;5.378;2022-12-29T00:19:02;0.83;;;0.57;;
44228;SDS011;29904;51.058;5.378;2022-12-29T00:21:29;0.80;;;0.60;;
44228;SDS011;29904;51.058;5.378;2022-12-29T00:24:15;1.10;;;0.63;;
44228;SDS011;29904;51.058;5.378;2022-12-29T00:26:53;2.10;;;0.50;;
44228;SDS011;29904;51.058;5.378;2022-12-29T00:29:42;0.40;;;0.40;;
44228;SDS011;29904;51.058;5.378;2022-12-29T00:32:26;1.13;;;0.50;;
44228;SDS011;29904;51.058;5.378;2022-12-29T00:35:11;0.80;;;0.45;;
44228;SDS011;29904;51.058;5.378;2022-12-29T00:37:40;1.50;;;0.50;;
44228;SDS011;29904;51.058;5.378;2022-12-29T00:40:27;1.40;;;0.40;;
44228;SDS011;29904;51.058;5.378;2022-12-29T00:43:11;1.80;;;0.40;;
44228;SDS011;29904;51.058;5.378;2022-12-29T00:45:55;0.85;;;0.40;;
44228;SDS011;29904;51.058;5.378;2022-12-29T00:48:21;1.38;;;0.52;;
44228;SDS011;29904;51.058;5.378;2022-12-29T00:51:06;1.90;;;0.40;;
44228;SDS011;29904;51.058;5.378;2022-12-29T00:53:34;0.80;;;0.30;;
44228;SDS011;29904;51.058;5.378;2022-12-29T00:56:00;1.30;;;0.30;;
44228;SDS011;29904;51.058;5.378;2022-12-29T00:58:29;1.80;;;0.30;;
44228;SDS011;29904;51.058;5.378;2022-12-29T01:01:06;0.80;;;0.40;;
44228;SDS011;29904;51.058;5.378;2022-12-29T01:03:34;0.70;;;0.32;;
44228;SDS011;29904;51.058;5.378;2022-12-29T01:06:01;1.23;;;0.40;;
44228;SDS011;29904;51.058;5.378;2022-12-29T01:08:28;1.40;;;0.30;;
44228;SDS011;29904;51.058;5.378;2022-12-29T01:11:02;0.50;;;0.30;;
44228;SDS011;29904;51.058;5.378;2022-12-29T01:13:38;1.33;;;0.30;;
44228;SDS011;29904;51.058;5.378;2022-12-29T01:16:06;1.00;;;0.50;;
44228;SDS011;29904;51.058;5.378;2022-12-29T01:18:32;0.80;;;0.30;;
44228;SDS011;29904;51.058;5.378;2022-12-29T01:20:58;1.77;;;0.40;;
44228;SDS011;29904;51.058;5.378;2022-12-29T01:23:28;1.70;;;0.40;;
44228;SDS011;29904;51.058;5.378;2022-12-29T01:25:56;1.58;;;0.30;;
44228;SDS011;29904;51.058;5.378;2022-12-29T01:28:22;1.40;;;0.40;;
44228;SDS011;29904;51.058;5.378;2022-12-29T01:30:48;1.80;;;0.40;;
44228;SDS011;29904;51.058;5.378;2022-12-29T01:33:13;0.57;;;0.30;;
44228;SDS011;29904;51.058;5.378;2022-12-29T01:35:39;1.48;;;0.40;;
44228;SDS011;29904;51.058;5.378;2022-12-29T01:38:05;1.98;;;0.50;;
44228;SDS011;29904;51.058;5.378;2022-12-29T01:40:31;1.48;;;0.38;;
44228;SDS011;29904;51.058;5.378;2022-12-29T01:42:56;2.22;;;0.38;;
44228;SDS011;29904;51.058;5.378;2022-12-29T01:45:22;2.38;;;0.50;;
44228;SDS011;29904;51.058;5.378;2022-12-29T01:47:57;2.25;;;0.55;;
44228;SDS011;29904;51.058;5.378;2022-12-29T01:50:32;2.90;;;0.55;;
44228;SDS011;29904;51.058;5.378;2022-12-29T01:53:08;1.20;;;0.50;;
44228;SDS011;29904;51.058;5.378;2022-12-29T01:55:48;1.63;;;0.40;;
44228;SDS011;29904;51.058;5.378;2022-12-29T01:58:20;1.67;;;0.50;;
44228;SDS011;29904;51.058;5.378;2022-12-29T02:00:49;2.30;;;0.50;;
44228;SDS011;29904;51.058;5.378;2022-12-29T02:03:16;2.10;;;0.52;;
44228;SDS011;29904;51.058;5.378;2022-12-29T02:05:46;3.35;;;0.60;;
44228;SDS011;29904;51.058;5.378;2022-12-29T02:08:42;2.20;;;0.68;;
44228;SDS011;29904;51.058;5.378;2022-12-29T02:11:11;1.90;;;0.50;;
44228;SDS011;29904;51.058;5.378;2022-12-29T02:13:37;2.47;;;0.40;;
44228;SDS011;29904;51.058;5.378;2022-12-29T02:23:52;1.48;;;0.45;;
44228;SDS011;29904;51.058;5.378;2022-12-29T02:31:39;2.90;;;0.50;;
44228;SDS011;29904;51.058;5.378;2022-12-29T02:45:07;1.58;;;0.50;;
44228;SDS011;29904;51.058;5.378;2022-12-29T02:47:56;2.95;;;0.50;;
44228;SDS011;29904;51.058;5.378;2022-12-29T02:50:32;1.80;;;0.50;;
44228;SDS011;29904;51.058;5.378;2022-12-29T02:53:08;1.63;;;0.50;;
44228;SDS011;29904;51.058;5.378;2022-12-29T02:55:36;1.38;;;0.40;;
44228;SDS011;29904;51.058;5.378;2022-12-29T02:58:19;2.45;;;0.40;;
44228;SDS011;29904;51.058;5.378;2022-12-29T03:01:01;0.73;;;0.30;;
44228;SDS011;29904;51.058;5.378;2022-12-29T03:09:21;1.73;;;0.30;;
44228;SDS011;29904;51.058;5.378;2022-12-29T03:12:29;0.63;;;0.30;;
44228;SDS011;29904;51.058;5.378;2022-12-29T03:15:29;0.82;;;0.30;;
44228;SDS011;29904;51.058;5.378;2022-12-29T03:18:24;1.90;;;0.50;;
44228;SDS011;29904;51.058;5.378;2022-12-29T03:23:41;2.00;;;0.40;;
44228;SDS011;29904;51.058;5.378;2022-12-29T03:26:12;1.25;;;0.25;;
44228;SDS011;29904;51.058;5.378;2022-12-29T03:28:43;1.30;;;0.30;;
44228;SDS011;29904;51.058;5.378;2022-12-29T03:31:17;1.50;;;0.40;;
44228;SDS011;29904;51.058;5.378;2022-12-29T03:33:44;1.50;;;0.30;;
44228;SDS011;29904;51.058;5.378;2022-12-29T03:36:13;0.98;;;0.30;;
44228;SDS011;29904;51.058;5.378;2022-12-29T03:38:47;1.55;;;0.40;;
44228;SDS011;29904;51.058;5.378;2022-12-29T03:41:22;1.50;;;0.40;;
44228;SDS011;29904;51.058;5.378;2022-12-29T03:43:52;3.10;;;0.40;;
44228;SDS011;29904;51.058;5.378;2022-12-29T03:46:18;1.70;;;0.40;;
44228;SDS011;29904;51.058;5.378;2022-12-29T03:48:43;0.82;;;0.30;;
44228;SDS011;29904;51.058;5.378;2022-12-29T03:51:11;1.20;;;0.38;;
44228;SDS011;29904;51.058;5.378;2022-12-29T03:53:37;0.80;;;0.40;;
44228;SDS011;29904;51.058;5.378;2022-12-29T03:56:03;1.58;;;0.45;;
44228;SDS011;29904;51.058;5.378;2022-12-29T03:58:29;1.38;;;0.38;;
44228;SDS011;29904;51.058;5.378;2022-12-29T04:00:55;1.42;;;0.38;;
44228;SDS011;29904;51.058;5.378;2022-12-29T04:03:21;1.90;;;0.43;;
44228;SDS011;29904;51.058;5.378;2022-12-29T04:05:47;2.10;;;0.40;;
44228;SDS011;29904;51.058;5.378;2022-12-29T04:08:13;2.22;;;0.52;;
44228;SDS011;29904;51.058;5.378;2022-12-29T04:10:38;2.43;;;0.40;;
44228;SDS011;29904;51.058;5.378;2022-12-29T04:13:06;1.88;;;0.30;;
44228;SDS011;29904;51.058;5.378;2022-12-29T04:15:32;2.23;;;0.50;;
44228;SDS011;29904;51.058;5.378;2022-12-29T04:17:57;2.15;;;0.50;;
44228;SDS011;29904;51.058;5.378;2022-12-29T04:20:23;2.10;;;0.47;;
44228;SDS011;29904;51.058;5.378;2022-12-29T04:23:08;1.92;;;0.50;;
44228;SDS011;29904;51.058;5.378;2022-12-29T04:25:34;1.30;;;0.50;;
44228;SDS011;29904;51.058;5.378;2022-12-29T04:28:00;1.77;;;0.55;;
44228;SDS011;29904;51.058;5.378;2022-12-29T04:30:26;2.10;;;0.40;;
44228;SDS011;29904;51.058;5.378;2022-12-29T04:32:51;1.63;;;0.40;;
44228;SDS011;29904;51.058;5.378;2022-12-29T04:35:17;2.08;;;0.30;;
44228;SDS011;29904;51.058;5.378;2022-12-29T04:37:43;2.33;;;0.40;;
44228;SDS011;29904;51.058;5.378;2022-12-29T04:40:09;2.55;;;0.52;;
44228;SDS011;29904;51.058;5.378;2022-12-29T04:42:37;1.83;;;0.40;;
44228;SDS011;29904;51.058;5.378;2022-12-29T04:45:03;2.13;;;0.50;;
44228;SDS011;29904;51.058;5.378;2022-12-29T04:47:29;3.25;;;0.70;;
44228;SDS011;29904;51.058;5.378;2022-12-29T04:49:54;3.03;;;0.70;;
44228;SDS011;29904;51.058;5.378;2022-12-29T04:52:20;1.73;;;0.50;;
44228;SDS011;29904;51.058;5.378;2022-12-29T04:54:48;1.75;;;0.38;;
44228;SDS011;29904;51.058;5.378;2022-12-29T04:57:13;1.92;;;0.32;;
44228;SDS011;29904;51.058;5.378;2022-12-29T04:59:39;3.30;;;0.40;;
44228;SDS011;29904;51.058;5.378;2022-12-29T05:02:05;1.63;;;0.43;;
44228;SDS011;29904;51.058;5.378;2022-12-29T05:04:32;1.90;;;0.60;;
44228;SDS011;29904;51.058;5.378;2022-12-29T05:06:58;1.55;;;0.30;;
44228;SDS011;29904;51.058;5.378;2022-12-29T05:09:24;1.65;;;0.40;;
44228;SDS011;29904;51.058;5.378;2022-12-29T05:11:49;1.70;;;0.47;;
44228;SDS011;29904;51.058;5.378;2022-12-29T05:14:15;2.38;;;0.60;;
44228;SDS011;29904;51.058;5.378;2022-12-29T05:16:41;2.63;;;0.45;;
44228;SDS011;29904;51.058;5.378;2022-12-29T05:19:06;4.60;;;0.50;;
44228;SDS011;29904;51.058;5.378;2022-12-29T05:21:34;3.40;;;0.55;;
44228;SDS011;29904;51.058;5.378;2022-12-29T05:24:00;2.15;;;0.40;;
44228;SDS011;29904;51.058;5.378;2022-12-29T05:26:25;3.00;;;0.32;;
44228;SDS011;29904;51.058;5.378;2022-12-29T05:28:53;1.48;;;0.30;;
44228;SDS011;29904;51.058;5.378;2022-12-29T05:31:19;2.97;;;0.55;;
44228;SDS011;29904;51.058;5.378;2022-12-29T05:33:44;2.63;;;0.50;;
44228;SDS011;29904;51.058;5.378;2022-12-29T05:36:10;2.67;;;0.33;;
44228;SDS011;29904;51.058;5.378;2022-12-29T05:38:36;2.63;;;0.52;;
44228;SDS011;29904;51.058;5.378;2022-12-29T05:41:02;3.20;;;0.70;;
44228;SDS011;29904;51.058;5.378;2022-12-29T05:43:28;3.33;;;0.50;;
44228;SDS011;29904;51.058;5.378;2022-12-29T05:45:53;2.80;;;0.50;;
44228;SDS011;29904;51.058;5.378;2022-12-29T05:48:20;3.88;;;0.60;;
44228;SDS011;29904;51.058;5.378;2022-12-29T05:50:47;1.55;;;0.40;;
44228;SDS011;29904;51.058;5.378;2022-12-29T05:53:13;2.70;;;0.60;;
44228;SDS011;29904;51.058;5.378;2022-12-29T05:55:39;2.80;;;0.47;;
44228;SDS011;29904;51.058;5.378;2022-12-29T05:58:05;2.27;;;0.50;;
44228;SDS011;29904;51.058;5.378;2022-12-29T06:00:31;2.47;;;0.63;;
44228;SDS011;29904;51.058;5.378;2022-12-29T06:02:57;3.87;;;0.63;;
44228;SDS011;29904;51.058;5.378;2022-12-29T06:05:24;4.43;;;0.50;;
44228;SDS011;29904;51.058;5.378;2022-12-29T06:07:50;3.55;;;0.75;;
44228;SDS011;29904;51.058;5.378;2022-12-29T06:10:16;3.17;;;0.57;;
44228;SDS011;29904;51.058;5.378;2022-12-29T06:12:44;2.58;;;0.70;;
44228;SDS011;29904;51.058;5.378;2022-12-29T06:15:10;3.50;;;0.55;;
44228;SDS011;29904;51.058;5.378;2022-12-29T06:17:36;3.07;;;0.60;;
44228;SDS011;29904;51.058;5.378;2022-12-29T06:20:02;3.55;;;0.55;;
44228;SDS011;29904;51.058;5.378;2022-12-29T06:22:28;4.93;;;0.60;;
44228;SDS011;29904;51.058;5.378;2022-12-29T06:24:53;2.25;;;0.60;;
44228;SDS011;29904;51.058;5.378;2022-12-29T06:27:19;2.67;;;0.50;;
44228;SDS011;29904;51.058;5.378;2022-12-29T06:29:45;4.30;;;0.80;;
44228;SDS011;29904;51.058;5.378;2022-12-29T06:32:11;3.90;;;0.50;;
44228;SDS011;29904;51.058;5.378;2022-12-29T06:34:37;2.92;;;0.80;;
44228;SDS011;29904;51.058;5.378;2022-12-29T06:37:02;4.03;;;0.93;;
44228;SDS011;29904;51.058;5.378;2022-12-29T06:39:28;4.38;;;0.95;;
44228;SDS011;29904;51.058;5.378;2022-12-29T06:41:54;5.15;;;0.82;;
44228;SDS011;29904;51.058;5.378;2022-12-29T06:44:20;4.47;;;0.87;;
44228;SDS011;29904;51.058;5.378;2022-12-29T06:46:46;6.95;;;0.90;;
44228;SDS011;29904;51.058;5.378;2022-12-29T06:49:12;4.10;;;0.80;;
44228;SDS011;29904;51.058;5.378;2022-12-29T06:51:38;5.50;;;0.80;;
44228;SDS011;29904;51.058;5.378;2022-12-29T06:54:03;5.70;;;0.90;;
44228;SDS011;29904;51.058;5.378;2022-12-29T06:56:31;4.95;;;1.30;;
44228;SDS011;29904;51.058;5.378;2022-12-29T06:58:57;3.80;;;0.83;;
44228;SDS011;29904;51.058;5.378;2022-12-29T07:01:25;4.10;;;0.70;;
44228;SDS011;29904;51.058;5.378;2022-12-29T07:03:51;6.10;;;0.90;;
44228;SDS011;29904;51.058;5.378;2022-12-29T07:06:16;6.20;;;1.00;;
44228;SDS011;29904;51.058;5.378;2022-12-29T07:08:42;5.53;;;0.90;;
44228;SDS011;29904;51.058;5.378;2022-12-29T07:11:08;3.70;;;0.90;;
44228;SDS011;29904;51.058;5.378;2022-12-29T07:13:33;3.83;;;0.93;;
44228;SDS011;29904;51.058;5.378;2022-12-29T07:16:04;3.90;;;0.80;;
44228;SDS011;29904;51.058;5.378;2022-12-29T07:18:33;4.35;;;0.80;;
44228;SDS011;29904;51.058;5.378;2022-12-29T07:21:00;5.38;;;0.75;;
44228;SDS011;29904;51.058;5.378;2022-12-29T07:23:25;3.67;;;0.77;;
44228;SDS011;29904;51.058;5.378;2022-12-29T07:26:25;4.20;;;0.73;;
44228;SDS011;29904;51.058;5.378;2022-12-29T07:28:44;3.60;;;0.70;;
44228;SDS011;29904;51.058;5.378;2022-12-29T07:31:17;5.22;;;0.90;;
44228;SDS011;29904;51.058;5.378;2022-12-29T07:33:44;5.20;;;1.00;;
44228;SDS011;29904;51.058;5.378;2022-12-29T07:36:12;6.18;;;0.93;;
44228;SDS011;29904;51.058;5.378;2022-12-29T07:38:39;5.57;;;1.00;;
44228;SDS011;29904;51.058;5.378;2022-12-29T07:41:05;4.88;;;0.75;;
44228;SDS011;29904;51.058;5.378;2022-12-29T07:43:33;3.87;;;0.77;;
44228;SDS011;29904;51.058;5.378;2022-12-29T07:45:59;3.88;;;0.80;;
44228;SDS011;29904;51.058;5.378;2022-12-29T07:48:25;3.08;;;0.80;;
44228;SDS011;29904;51.058;5.378;2022-12-29T07:50:51;3.97;;;0.70;;
44228;SDS011;29904;51.058;5.378;2022-12-29T07:53:18;4.13;;;0.68;;
44228;SDS011;29904;51.058;5.378;2022-12-29T07:55:44;4.03;;;0.77;;
44228;SDS011;29904;51.058;5.378;2022-12-29T07:58:10;5.25;;;0.90;;
44228;SDS011;29904;51.058;5.378;2022-12-29T08:00:36;4.45;;;1.08;;
44228;SDS011;29904;51.058;5.378;2022-12-29T08:03:03;5.35;;;0.90;;
44228;SDS011;29904;51.058;5.378;2022-12-29T08:05:31;3.95;;;0.80;;
44228;SDS011;29904;51.058;5.378;2022-12-29T08:07:58;5.17;;;1.00;;
44228;SDS011;29904;51.058;5.378;2022-12-29T08:10:24;4.40;;;0.80;;
44228;SDS011;29904;51.058;5.378;2022-12-29T08:12:50;3.92;;;0.60;;
44228;SDS011;29904;51.058;5.378;2022-12-29T08:15:16;4.03;;;0.90;;
44228;SDS011;29904;51.058;5.378;2022-12-29T08:17:41;4.03;;;0.80;;
44228;SDS011;29904;51.058;5.378;2022-12-29T08:20:09;7.03;;;0.70;;
44228;SDS011;29904;51.058;5.378;2022-12-29T08:22:35;4.47;;;0.90;;
44228;SDS011;29904;51.058;5.378;2022-12-29T08:25:01;5.80;;;1.00;;
44228;SDS011;29904;51.058;5.378;2022-12-29T08:27:29;7.50;;;0.80;;
44228;SDS011;29904;51.058;5.378;2022-12-29T08:29:55;5.18;;;0.95;;
44228;SDS011;29904;51.058;5.378;2022-12-29T08:32:21;6.78;;;0.90;;
44228;SDS011;29904;51.058;5.378;2022-12-29T08:34:46;5.13;;;0.80;;
44228;SDS011;29904;51.058;5.378;2022-12-29T08:37:14;4.15;;;0.80;;
44228;SDS011;29904;51.058;5.378;2022-12-29T08:39:44;4.68;;;0.80;;
44228;SDS011;29904;51.058;5.378;2022-12-29T08:42:10;5.60;;;1.00;;
44228;SDS011;29904;51.058;5.378;2022-12-29T08:44:36;4.85;;;0.80;;
44228;SDS011;29904;51.058;5.378;2022-12-29T08:47:01;5.30;;;0.93;;
44228;SDS011;29904;51.058;5.378;2022-12-29T08:49:27;3.37;;;0.90;;
44228;SDS011;29904;51.058;5.378;2022-12-29T08:51:53;5.57;;;1.00;;
44228;SDS011;29904;51.058;5.378;2022-12-29T08:54:19;7.10;;;1.00;;
44228;SDS011;29904;51.058;5.378;2022-12-29T08:56:44;6.50;;;1.08;;
44228;SDS011;29904;51.058;5.378;2022-12-29T08:59:12;4.93;;;0.80;;
44228;SDS011;29904;51.058;5.378;2022-12-29T09:01:38;5.40;;;0.70;;
44228;SDS011;29904;51.058;5.378;2022-12-29T09:04:05;3.78;;;0.80;;
44228;SDS011;29904;51.058;5.378;2022-12-29T09:06:32;4.38;;;0.77;;
44228;SDS011;29904;51.058;5.378;2022-12-29T09:08:58;6.03;;;1.10;;
44228;SDS011;29904;51.058;5.378;2022-12-29T09:11:24;4.57;;;0.83;;
44228;SDS011;29904;51.058;5.378;2022-12-29T09:13:50;6.30;;;1.08;;
44228;SDS011;29904;51.058;5.378;2022-12-29T09:16:17;5.97;;;0.80;;
44228;SDS011;29904;51.058;5.378;2022-12-29T09:18:43;7.15;;;1.23;;
44228;SDS011;29904;51.058;5.378;2022-12-29T09:21:10;5.35;;;0.88;;
44228;SDS011;29904;51.058;5.378;2022-12-29T09:23:36;8.13;;;0.90;;
44228;SDS011;29904;51.058;5.378;2022-12-29T09:26:02;7.68;;;1.20;;
44228;SDS011;29904;51.058;5.378;2022-12-29T09:28:30;6.60;;;0.98;;
44228;SDS011;29904;51.058;5.378;2022-12-29T09:30:56;5.53;;;1.20;;
44228;SDS011;29904;51.058;5.378;2022-12-29T09:33:23;5.72;;;0.90;;
44228;SDS011;29904;51.058;5.378;2022-12-29T09:35:51;4.80;;;0.97;;
44228;SDS011;29904;51.058;5.378;2022-12-29T09:38:19;5.45;;;0.80;;
44228;SDS011;29904;51.058;5.378;2022-12-29T09:40:46;5.33;;;1.13;;
44228;SDS011;29904;51.058;5.378;2022-12-29T09:45:53;6.93;;;0.98;;
44228;SDS011;29904;51.058;5.378;2022-12-29T09:48:31;7.22;;;1.13;;
44228;SDS011;29904;51.058;5.378;2022-12-29T09:51:00;5.22;;;0.73;;
44228;SDS011;29904;51.058;5.378;2022-12-29T09:53:31;6.03;;;1.10;;
44228;SDS011;29904;51.058;5.378;2022-12-29T09:56:07;8.68;;;1.35;;
44228;SDS011;29904;51.058;5.378;2022-12-29T09:58:45;7.07;;;0.95;;
44228;SDS011;29904;51.058;5.378;2022-12-29T10:03:58;5.95;;;0.90;;
44228;SDS011;29904;51.058;5.378;2022-12-29T10:12:11;7.57;;;1.00;;
44228;SDS011;29904;51.058;5.378;2022-12-29T10:25:57;6.97;;;1.17;;
44228;SDS011;29904;51.058;5.378;2022-12-29T10:31:08;7.25;;;1.58;;
44228;SDS011;29904;51.058;5.378;2022-12-29T10:33:39;5.68;;;1.17;;
44228;SDS011;29904;51.058;5.378;2022-12-29T10:38:48;6.30;;;1.38;;
44228;SDS011;29904;51.058;5.378;2022-12-29T10:41:21;6.25;;;1.10;;
44228;SDS011;29904;51.058;5.378;2022-12-29T10:43:58;6.20;;;1.38;;
44228;SDS011;29904;51.058;5.378;2022-12-29T10:46:30;4.85;;;1.05;;
44228;SDS011;29904;51.058;5.378;2022-12-29T10:49:00;5.07;;;0.88;;
44228;SDS011;29904;51.058;5.378;2022-12-29T10:51:32;4.00;;;0.80;;
44228;SDS011;29904;51.058;5.378;2022-12-29T10:54:11;7.25;;;1.30;;
44228;SDS011;29904;51.058;5.378;2022-12-29T10:56:44;5.88;;;1.20;;
44228;SDS011;29904;51.058;5.378;2022-12-29T10:59:21;4.13;;;0.90;;
44228;SDS011;29904;51.058;5.378;2022-12-29T11:07:34;7.20;;;1.20;;
44228;SDS011;29904;51.058;5.378;2022-12-29T11:10:44;6.13;;;1.20;;
44228;SDS011;29904;51.058;5.378;2022-12-29T11:12:56;5.72;;;1.02;;
44228;SDS011;29904;51.058;5.378;2022-12-29T11:15:27;6.80;;;1.30;;
44228;SDS011;29904;51.058;5.378;2022-12-29T11:18:23;5.82;;;1.10;;
44228;SDS011;29904;51.058;5.378;2022-12-29T11:20:53;7.07;;;1.30;;
44228;SDS011;29904;51.058;5.378;2022-12-29T11:23:33;7.30;;;1.13;;
44228;SDS011;29904;51.058;5.378;2022-12-29T11:26:24;6.83;;;1.23;;
44228;SDS011;29904;51.058;5.378;2022-12-29T11:29:08;5.57;;;1.00;;
44228;SDS011;29904;51.058;5.378;2022-12-29T11:31:43;6.40;;;1.05;;
44228;SDS011;29904;51.058;5.378;2022-12-29T11:34:32;7.78;;;1.48;;
44228;SDS011;29904;51.058;5.378;2022-12-29T11:37:01;8.23;;;1.30;;
44228;SDS011;29904;51.058;5.378;2022-12-29T11:42:03;5.13;;;1.10;;
44228;SDS011;29904;51.058;5.378;2022-12-29T11:44:37;10.13;;;1.40;;
44228;SDS011;29904;51.058;5.378;2022-12-29T11:47:09;8.13;;;1.30;;
44228;SDS011;29904;51.058;5.378;2022-12-29T11:49:51;6.95;;;1.40;;
44228;SDS011;29904;51.058;5.378;2022-12-29T11:52:23;6.55;;;1.40;;
44228;SDS011;29904;51.058;5.378;2022-12-29T11:54:53;5.22;;;1.10;;
44228;SDS011;29904;51.058;5.378;2022-12-29T11:57:20;6.22;;;1.13;;
44228;SDS011;29904;51.058;5.378;2022-12-29T11:59:50;5.97;;;1.20;;
44228;SDS011;29904;51.058;5.378;2022-12-29T12:02:40;4.32;;;1.00;;
44228;SDS011;29904;51.058;5.378;2022-12-29T12:05:16;7.10;;;1.33;;
44228;SDS011;29904;51.058;5.378;2022-12-29T12:07:49;5.63;;;1.40;;
44228;SDS011;29904;51.058;5.378;2022-12-29T12:10:34;7.60;;;1.50;;
44228;SDS011;29904;51.058;5.378;2022-12-29T12:18:50;5.90;;;1.40;;
44228;SDS011;29904;51.058;5.378;2022-12-29T12:27:08;5.63;;;0.95;;
44228;SDS011;29904;51.058;5.378;2022-12-29T12:29:50;4.40;;;1.17;;
44228;SDS011;29904;51.058;5.378;2022-12-29T12:35:11;7.25;;;1.23;;
44228;SDS011;29904;51.058;5.378;2022-12-29T13:00:17;5.47;;;0.98;;
44228;SDS011;29904;51.058;5.378;2022-12-29T13:11:09;5.10;;;0.80;;
44228;SDS011;29904;51.058;5.378;2022-12-29T13:16:22;6.25;;;1.30;;
44228;SDS011;29904;51.058;5.378;2022-12-29T13:21:34;5.63;;;0.95;;
44228;SDS011;29904;51.058;5.378;2022-12-29T13:29:43;5.88;;;0.90;;
44228;SDS011;29904;51.058;5.378;2022-12-29T13:38:02;4.90;;;1.10;;
44228;SDS011;29904;51.058;5.378;2022-12-29T13:40:34;4.32;;;0.90;;
44228;SDS011;29904;51.058;5.378;2022-12-29T13:43:05;3.70;;;0.93;;
44228;SDS011;29904;51.058;5.378;2022-12-29T13:45:31;5.13;;;0.98;;
44228;SDS011;29904;51.058;5.378;2022-12-29T13:48:03;5.55;;;1.00;;
44228;SDS011;29904;51.058;5.378;2022-12-29T13:50:31;4.65;;;1.05;;
44228;SDS011;29904;51.058;5.378;2022-12-29T13:53:05;4.22;;;0.93;;
44228;SDS011;29904;51.058;5.378;2022-12-29T13:55:54;5.70;;;1.20;;
44228;SDS011;29904;51.058;5.378;2022-12-29T13:58:31;6.18;;;1.00;;
44228;SDS011;29904;51.058;5.378;2022-12-29T14:03:58;3.80;;;0.82;;
44228;SDS011;29904;51.058;5.378;2022-12-29T14:06:26;4.57;;;0.90;;
44228;SDS011;29904;51.058;5.378;2022-12-29T14:08:56;5.18;;;1.10;;
44228;SDS011;29904;51.058;5.378;2022-12-29T14:11:29;5.78;;;1.20;;
44228;SDS011;29904;51.058;5.378;2022-12-29T14:14:03;4.70;;;1.00;;
44228;SDS011;29904;51.058;5.378;2022-12-29T14:17:08;5.83;;;1.20;;
44228;SDS011;29904;51.058;5.378;2022-12-29T14:19:37;4.82;;;1.05;;
44228;SDS011;29904;51.058;5.378;2022-12-29T14:22:08;5.40;;;1.30;;
44228;SDS011;29904;51.058;5.378;2022-12-29T14:24:43;6.15;;;1.13;;
44228;SDS011;29904;51.058;5.378;2022-12-29T14:34:55;5.67;;;0.97;;
44228;SDS011;29904;51.058;5.378;2022-12-29T14:40:14;4.85;;;1.13;;
44228;SDS011;29904;51.058;5.378;2022-12-29T14:42:42;5.85;;;1.10;;
44228;SDS011;29904;51.058;5.378;2022-12-29T14:47:40;7.03;;;1.13;;
44228;SDS011;29904;51.058;5.378;2022-12-29T14:57:41;4.47;;;1.00;;
44228;SDS011;29904;51.058;5.378;2022-12-29T15:00:15;3.05;;;0.68;;
44228;SDS011;29904;51.058;5.378;2022-12-29T15:02:59;3.97;;;1.02;;
44228;SDS011;29904;51.058;5.378;2022-12-29T15:05:35;5.28;;;1.20;;
44228;SDS011;29904;51.058;5.378;2022-12-29T15:08:07;7.38;;;1.27;;
44228;SDS011;29904;51.058;5.378;2022-12-29T15:10:58;7.55;;;1.30;;
44228;SDS011;29904;51.058;5.378;2022-12-29T15:13:36;4.93;;;0.98;;
44228;SDS011;29904;51.058;5.378;2022-12-29T15:16:03;8.60;;;1.20;;
44228;SDS011;29904;51.058;5.378;2022-12-29T15:18:46;6.70;;;0.90;;
44228;SDS011;29904;51.058;5.378;2022-12-29T15:21:12;6.67;;;1.00;;
44228;SDS011;29904;51.058;5.378;2022-12-29T15:23:40;5.05;;;1.00;;
44228;SDS011;29904;51.058;5.378;2022-12-29T15:26:09;5.75;;;1.13;;
44228;SDS011;29904;51.058;5.378;2022-12-29T15:28:36;6.70;;;1.40;;
44228;SDS011;29904;51.058;5.378;2022-12-29T15:31:21;6.72;;;1.38;;
44228;SDS011;29904;51.058;5.378;2022-12-29T15:33:54;7.70;;;1.40;;
44228;SDS011;29904;51.058;5.378;2022-12-29T15:36:27;6.97;;;1.30;;
44228;SDS011;29904;51.058;5.378;2022-12-29T15:38:54;8.88;;;1.45;;
44228;SDS011;29904;51.058;5.378;2022-12-29T15:44:46;9.77;;;1.40;;
44228;SDS011;29904;51.058;5.378;2022-12-29T15:47:20;6.72;;;1.20;;
44228;SDS011;29904;51.058;5.378;2022-12-29T15:49:49;7.90;;;1.20;;
44228;SDS011;29904;51.058;5.378;2022-12-29T15:52:21;8.20;;;1.30;;
44228;SDS011;29904;51.058;5.378;2022-12-29T15:54:49;9.63;;;2.30;;
44228;SDS011;29904;51.058;5.378;2022-12-29T15:57:25;4.65;;;0.88;;
44228;SDS011;29904;51.058;5.378;2022-12-29T15:59:53;4.93;;;1.20;;
44228;SDS011;29904;51.058;5.378;2022-12-29T16:02:21;1.90;;;0.40;;
44228;SDS011;29904;51.058;5.378;2022-12-29T16:04:48;1.48;;;0.35;;
44228;SDS011;29904;51.058;5.378;2022-12-29T16:07:27;3.72;;;0.60;;
44228;SDS011;29904;51.058;5.378;2022-12-29T16:09:56;2.33;;;0.57;;
44228;SDS011;29904;51.058;5.378;2022-12-29T16:12:30;4.30;;;1.30;;
44228;SDS011;29904;51.058;5.378;2022-12-29T16:14:59;3.40;;;0.80;;
44228;SDS011;29904;51.058;5.378;2022-12-29T16:17:28;3.55;;;1.17;;
44228;SDS011;29904;51.058;5.378;2022-12-29T16:20:20;2.70;;;1.20;;
44228;SDS011;29904;51.058;5.378;2022-12-29T16:22:47;6.22;;;1.20;;
44228;SDS011;29904;51.058;5.378;2022-12-29T16:25:28;3.85;;;1.40;;
44228;SDS011;29904;51.058;5.378;2022-12-29T16:27:59;4.57;;;0.90;;
44228;SDS011;29904;51.058;5.378;2022-12-29T16:30:30;4.53;;;1.03;;
44228;SDS011;29904;51.058;5.378;2022-12-29T16:32:58;4.28;;;1.00;;
44228;SDS011;29904;51.058;5.378;2022-12-29T16:35:27;3.75;;;1.10;;
44228;SDS011;29904;51.058;5.378;2022-12-29T16:38:13;4.22;;;0.80;;
44228;SDS011;29904;51.058;5.378;2022-12-29T16:40:50;3.83;;;1.10;;
44228;SDS011;29904;51.058;5.378;2022-12-29T16:43:25;3.60;;;1.00;;
44228;SDS011;29904;51.058;5.378;2022-12-29T16:48:20;5.13;;;0.90;;
44228;SDS011;29904;51.058;5.378;2022-12-29T16:51:16;4.90;;;1.17;;
44228;SDS011;29904;51.058;5.378;2022-12-29T16:53:49;4.80;;;1.20;;
44228;SDS011;29904;51.058;5.378;2022-12-29T16:56:19;4.03;;;1.08;;
44228;SDS011;29904;51.058;5.378;2022-12-29T16:58:49;5.03;;;1.20;;
44228;SDS011;29904;51.058;5.378;2022-12-29T17:01:19;4.23;;;1.40;;
44228;SDS011;29904;51.058;5.378;2022-12-29T17:03:47;5.57;;;1.30;;
44228;SDS011;29904;51.058;5.378;2022-12-29T17:06:19;4.82;;;1.40;;
44228;SDS011;29904;51.058;5.378;2022-12-29T17:08:47;5.27;;;1.03;;
44228;SDS011;29904;51.058;5.378;2022-12-29T17:14:04;8.27;;;1.20;;
44228;SDS011;29904;51.058;5.378;2022-12-29T17:16:29;6.50;;;1.15;;
44228;SDS011;29904;51.058;5.378;2022-12-29T17:18:55;6.15;;;1.30;;
44228;SDS011;29904;51.058;5.378;2022-12-29T17:21:21;7.22;;;1.67;;
44228;SDS011;29904;51.058;5.378;2022-12-29T17:23:47;8.63;;;1.90;;
44228;SDS011;29904;51.058;5.378;2022-12-29T17:26:13;6.80;;;1.50;;
44228;SDS011;29904;51.058;5.378;2022-12-29T17:28:38;7.15;;;1.60;;
44228;SDS011;29904;51.058;5.378;2022-12-29T17:31:05;6.50;;;1.35;;
44228;SDS011;29904;51.058;5.378;2022-12-29T17:33:35;9.55;;;2.03;;
44228;SDS011;29904;51.058;5.378;2022-12-29T17:36:03;7.90;;;1.55;;
44228;SDS011;29904;51.058;5.378;2022-12-29T17:38:29;9.38;;;1.63;;
44228;SDS011;29904;51.058;5.378;2022-12-29T17:41:01;11.40;;;1.80;;
44228;SDS011;29904;51.058;5.378;2022-12-29T17:43:28;6.78;;;1.40;;
44228;SDS011;29904;51.058;5.378;2022-12-29T17:45:54;10.63;;;1.58;;
44228;SDS011;29904;51.058;5.378;2022-12-29T17:48:22;9.37;;;2.10;;
44228;SDS011;29904;51.058;5.378;2022-12-29T17:50:49;11.10;;;1.75;;